Terminal Aerodrome Forecast
Issued by NWS

Home | Current Version | Previous Version | Text Only | Print | Product List | Glossary On
Versions: 1 2 3 4 5 6 7 8 9 10 11 12 13 14 15 16 17 18 19 20 21 22 23 24
000
FTUS44 KTSA 231700 RRA
TAFBVO
TAF
KBVO 231745Z 2318/2418 17012KT P6SM BKN018 BKN025
     FM232000 22012G19KT P6SM BKN025 BKN035
      TEMPO 2322/2324 VRB15KT 4SM -TSRA BR BKN025CB
     FM240000 32017G28KT P6SM VCTS SCT018 BKN025CB
     FM240200 33014KT P6SM VCSH BKN035
     FM240600 29008KT P6SM SCT120
     FM240900 26005KT P6SM SKC=

USA.gov is the U.S. government's official web portal to all federal, state and local government web resources and services.